Airfield :
LOGIN :

Register | Disclaimer

   EN    FR    IT 

 










Legend :    VFR   Marginal VFR   IFR   Intensive IFR   Very Intensive IFR
Visi :
Ceiling :
>= 8 km
>= 3000ft
5 to 8 km
1000 to 3000 ft
1500m to 5 km
500 to 1000 ft
800 to 1500m
200 to 500 ft
< 800m
< 200 ft
Symbols :   Thunderstorms  Fog  Heavy snow  Heavy precipitations  Wind > 20 kt
SIGMETs :     Misc.  Thunderstorms  Icing  Turbulence  Mountain Waves  Volcanic Ashes







- Airport Elevation : 538 ft
- IATA code : TNF
- Download approach charts


LFPN - Toussus Le Noble

CURRENT METAR :
  • 211300Z AUTO 14011KT 100V190 CAVOK 26/12 Q1012 NOSIG

EXPIRED METARs :
  • 211230Z AUTO 13010KT 090V170 CAVOK 25/12 Q1012 NOSIG
  • 211200Z AUTO 11008KT 070V170 CAVOK 24/11 Q1012 NOSIG
  • 211130Z AUTO 10007KT 070V140 CAVOK 24/10 Q1013 NOSIG
  • 211100Z AUTO 12008KT 080V150 CAVOK 23/10 Q1013 NOSIG
  • 211030Z AUTO 14006KT 100V180 CAVOK 22/10 Q1014 NOSIG

TAF TAF LFPN
Valid from the 21 at 12:00 until the 21 at 21:00 UTC


211100Z 2112/2121 14008KT CAVOK
ATIS : +33 1 39 56 54 70
No reported NOTAMs for that airfield.



MET'MAP, your aeronautical weather chart ! - Copyright ORBIFLY December 2007 - Disclaimer

ORBIFLY MET'MAP TEAM :

Programming & Development : Alexandra Zaïnal
Concept & Development : Baudouin d'Aumeries
Co-Development & Prog : Marc-Olivier Méhu
Technical & hardware support : Manuel Goepfert

Contact : metmap@orbifly.com




SOURCES & CREDITS :

   NOAA